sensor_id;sensor_type;location;lat;lon;timestamp;pressure;altitude;pressure_sealevel;temperature
8227;BMP180;4154;48.810;9.012;2023-08-07T00:01:33;96921.00;;;11.50
8227;BMP180;4154;48.810;9.012;2023-08-07T00:03:59;96916.00;;;11.50
8227;BMP180;4154;48.810;9.012;2023-08-07T00:06:25;96911.00;;;11.40
8227;BMP180;4154;48.810;9.012;2023-08-07T00:08:52;96911.00;;;11.50
8227;BMP180;4154;48.810;9.012;2023-08-07T00:11:18;96924.00;;;11.50
8227;BMP180;4154;48.810;9.012;2023-08-07T00:13:44;96927.00;;;11.50
8227;BMP180;4154;48.810;9.012;2023-08-07T00:16:17;96918.00;;;11.50
8227;BMP180;4154;48.810;9.012;2023-08-07T00:18:44;96926.00;;;11.50
8227;BMP180;4154;48.810;9.012;2023-08-07T00:21:24;96921.00;;;11.50
8227;BMP180;4154;48.810;9.012;2023-08-07T00:23:50;96937.00;;;11.50
8227;BMP180;4154;48.810;9.012;2023-08-07T00:26:17;96922.00;;;11.50
8227;BMP180;4154;48.810;9.012;2023-08-07T00:28:43;96928.00;;;11.50
8227;BMP180;4154;48.810;9.012;2023-08-07T00:31:09;96929.00;;;11.60
8227;BMP180;4154;48.810;9.012;2023-08-07T00:33:35;96920.00;;;11.50
8227;BMP180;4154;48.810;9.012;2023-08-07T00:36:01;96928.00;;;11.50
8227;BMP180;4154;48.810;9.012;2023-08-07T00:38:27;96923.00;;;11.60
8227;BMP180;4154;48.810;9.012;2023-08-07T00:40:56;96939.00;;;11.60
8227;BMP180;4154;48.810;9.012;2023-08-07T00:43:22;96940.00;;;11.60
8227;BMP180;4154;48.810;9.012;2023-08-07T00:45:48;96944.00;;;11.60
8227;BMP180;4154;48.810;9.012;2023-08-07T00:48:16;96935.00;;;11.60
8227;BMP180;4154;48.810;9.012;2023-08-07T00:50:43;96942.00;;;11.60
8227;BMP180;4154;48.810;9.012;2023-08-07T00:53:10;96939.00;;;11.60
8227;BMP180;4154;48.810;9.012;2023-08-07T00:55:36;96947.00;;;11.60
8227;BMP180;4154;48.810;9.012;2023-08-07T00:58:03;96950.00;;;11.60
8227;BMP180;4154;48.810;9.012;2023-08-07T01:00:29;96955.00;;;11.60
8227;BMP180;4154;48.810;9.012;2023-08-07T01:02:56;96964.00;;;11.70
8227;BMP180;4154;48.810;9.012;2023-08-07T01:05:26;96964.00;;;11.70
8227;BMP180;4154;48.810;9.012;2023-08-07T01:07:53;96947.00;;;11.70
8227;BMP180;4154;48.810;9.012;2023-08-07T01:10:34;96967.00;;;11.70
8227;BMP180;4154;48.810;9.012;2023-08-07T01:13:37;96955.00;;;11.70
8227;BMP180;4154;48.810;9.012;2023-08-07T01:16:12;96955.00;;;11.70
8227;BMP180;4154;48.810;9.012;2023-08-07T01:18:40;96956.00;;;11.70
8227;BMP180;4154;48.810;9.012;2023-08-07T01:21:19;96951.00;;;11.70
8227;BMP180;4154;48.810;9.012;2023-08-07T01:23:48;96959.00;;;11.70
8227;BMP180;4154;48.810;9.012;2023-08-07T01:26:19;96953.00;;;11.70
8227;BMP180;4154;48.810;9.012;2023-08-07T01:31:56;96950.00;;;11.70
8227;BMP180;4154;48.810;9.012;2023-08-07T01:34:25;96961.00;;;11.70
8227;BMP180;4154;48.810;9.012;2023-08-07T01:36:53;96967.00;;;11.70
8227;BMP180;4154;48.810;9.012;2023-08-07T01:39:20;96958.00;;;11.60
8227;BMP180;4154;48.810;9.012;2023-08-07T01:41:47;96970.00;;;11.60
8227;BMP180;4154;48.810;9.012;2023-08-07T01:44:13;96964.00;;;11.70
8227;BMP180;4154;48.810;9.012;2023-08-07T01:46:39;96962.00;;;11.60
8227;BMP180;4154;48.810;9.012;2023-08-07T01:49:05;96953.00;;;11.60
8227;BMP180;4154;48.810;9.012;2023-08-07T01:51:31;96971.00;;;11.60
8227;BMP180;4154;48.810;9.012;2023-08-07T01:53:57;96965.00;;;11.60
8227;BMP180;4154;48.810;9.012;2023-08-07T01:56:23;96967.00;;;11.70
8227;BMP180;4154;48.810;9.012;2023-08-07T01:58:50;96970.00;;;11.70
8227;BMP180;4154;48.810;9.012;2023-08-07T02:01:16;96961.00;;;11.70
8227;BMP180;4154;48.810;9.012;2023-08-07T02:03:42;96961.00;;;11.60
8227;BMP180;4154;48.810;9.012;2023-08-07T02:06:08;96970.00;;;11.60
8227;BMP180;4154;48.810;9.012;2023-08-07T02:08:34;96969.00;;;11.60
8227;BMP180;4154;48.810;9.012;2023-08-07T02:11:00;96968.00;;;11.70
8227;BMP180;4154;48.810;9.012;2023-08-07T02:13:27;96974.00;;;11.70
8227;BMP180;4154;48.810;9.012;2023-08-07T02:15:53;96973.00;;;11.70
8227;BMP180;4154;48.810;9.012;2023-08-07T02:18:19;96982.00;;;11.60
8227;BMP180;4154;48.810;9.012;2023-08-07T02:20:45;96979.00;;;11.60
8227;BMP180;4154;48.810;9.012;2023-08-07T02:23:12;96975.00;;;11.70
8227;BMP180;4154;48.810;9.012;2023-08-07T02:25:38;96972.00;;;11.70
8227;BMP180;4154;48.810;9.012;2023-08-07T02:28:04;96987.00;;;11.70
8227;BMP180;4154;48.810;9.012;2023-08-07T02:30:31;96984.00;;;11.70
8227;BMP180;4154;48.810;9.012;2023-08-07T02:32:57;96975.00;;;11.70
8227;BMP180;4154;48.810;9.012;2023-08-07T02:35:23;96976.00;;;11.60
8227;BMP180;4154;48.810;9.012;2023-08-07T02:37:49;96969.00;;;11.60
8227;BMP180;4154;48.810;9.012;2023-08-07T02:40:15;96976.00;;;11.60
8227;BMP180;4154;48.810;9.012;2023-08-07T02:42:43;96968.00;;;11.60
8227;BMP180;4154;48.810;9.012;2023-08-07T02:45:09;96970.00;;;11.70
8227;BMP180;4154;48.810;9.012;2023-08-07T02:47:35;96987.00;;;11.50
8227;BMP180;4154;48.810;9.012;2023-08-07T02:50:02;96977.00;;;11.60
8227;BMP180;4154;48.810;9.012;2023-08-07T02:52:28;96980.00;;;11.60
8227;BMP180;4154;48.810;9.012;2023-08-07T02:54:54;96983.00;;;11.60
8227;BMP180;4154;48.810;9.012;2023-08-07T02:57:20;96993.00;;;11.60
8227;BMP180;4154;48.810;9.012;2023-08-07T02:59:46;96991.00;;;11.60
8227;BMP180;4154;48.810;9.012;2023-08-07T03:02:12;96992.00;;;11.60
8227;BMP180;4154;48.810;9.012;2023-08-07T03:04:38;96990.00;;;11.50
8227;BMP180;4154;48.810;9.012;2023-08-07T03:07:04;96986.00;;;11.50
8227;BMP180;4154;48.810;9.012;2023-08-07T03:09:30;97004.00;;;11.60
8227;BMP180;4154;48.810;9.012;2023-08-07T03:11:56;96985.00;;;11.50
8227;BMP180;4154;48.810;9.012;2023-08-07T03:14:22;97006.00;;;11.50
8227;BMP180;4154;48.810;9.012;2023-08-07T03:16:48;96997.00;;;11.50
8227;BMP180;4154;48.810;9.012;2023-08-07T03:19:14;96999.00;;;11.50
8227;BMP180;4154;48.810;9.012;2023-08-07T03:21:41;97006.00;;;11.40
8227;BMP180;4154;48.810;9.012;2023-08-07T03:24:07;97006.00;;;11.50
8227;BMP180;4154;48.810;9.012;2023-08-07T03:26:33;97012.00;;;11.50
8227;BMP180;4154;48.810;9.012;2023-08-07T03:28:59;96999.00;;;11.40
8227;BMP180;4154;48.810;9.012;2023-08-07T03:31:25;97005.00;;;11.40
8227;BMP180;4154;48.810;9.012;2023-08-07T03:33:52;96996.00;;;11.50
8227;BMP180;4154;48.810;9.012;2023-08-07T03:36:18;97002.00;;;11.40
8227;BMP180;4154;48.810;9.012;2023-08-07T03:38:44;96998.00;;;11.50
8227;BMP180;4154;48.810;9.012;2023-08-07T03:41:10;97004.00;;;11.50
8227;BMP180;4154;48.810;9.012;2023-08-07T03:43:36;96996.00;;;11.50
8227;BMP180;4154;48.810;9.012;2023-08-07T03:46:02;97002.00;;;11.40
8227;BMP180;4154;48.810;9.012;2023-08-07T03:48:28;96997.00;;;11.40
8227;BMP180;4154;48.810;9.012;2023-08-07T03:51:03;97001.00;;;11.50
8227;BMP180;4154;48.810;9.012;2023-08-07T03:53:29;96996.00;;;11.50
8227;BMP180;4154;48.810;9.012;2023-08-07T03:55:55;96993.00;;;11.50
8227;BMP180;4154;48.810;9.012;2023-08-07T03:58:21;96998.00;;;11.50
8227;BMP180;4154;48.810;9.012;2023-08-07T04:00:47;96996.00;;;11.50
8227;BMP180;4154;48.810;9.012;2023-08-07T04:03:13;97000.00;;;11.50
8227;BMP180;4154;48.810;9.012;2023-08-07T04:05:39;96989.00;;;11.50
8227;BMP180;4154;48.810;9.012;2023-08-07T04:08:05;97007.00;;;11.50
8227;BMP180;4154;48.810;9.012;2023-08-07T04:10:31;97003.00;;;11.60
8227;BMP180;4154;48.810;9.012;2023-08-07T04:12:57;96993.00;;;11.60
8227;BMP180;4154;48.810;9.012;2023-08-07T04:15:23;97004.00;;;11.60
8227;BMP180;4154;48.810;9.012;2023-08-07T04:17:49;97000.00;;;11.50
8227;BMP180;4154;48.810;9.012;2023-08-07T04:20:15;96998.00;;;11.60
8227;BMP180;4154;48.810;9.012;2023-08-07T04:22:41;97004.00;;;11.50
8227;BMP180;4154;48.810;9.012;2023-08-07T04:25:07;97002.00;;;11.50
8227;BMP180;4154;48.810;9.012;2023-08-07T04:27:33;97012.00;;;11.60
8227;BMP180;4154;48.810;9.012;2023-08-07T04:29:59;97013.00;;;11.60
8227;BMP180;4154;48.810;9.012;2023-08-07T04:32:25;97016.00;;;11.50
8227;BMP180;4154;48.810;9.012;2023-08-07T04:34:51;97007.00;;;11.50
8227;BMP180;4154;48.810;9.012;2023-08-07T04:37:17;97012.00;;;11.60
8227;BMP180;4154;48.810;9.012;2023-08-07T04:39:43;97014.00;;;11.60
8227;BMP180;4154;48.810;9.012;2023-08-07T04:42:10;97011.00;;;11.60
8227;BMP180;4154;48.810;9.012;2023-08-07T04:44:36;97016.00;;;11.70
8227;BMP180;4154;48.810;9.012;2023-08-07T04:47:02;97025.00;;;11.70
8227;BMP180;4154;48.810;9.012;2023-08-07T04:49:28;97020.00;;;11.70
8227;BMP180;4154;48.810;9.012;2023-08-07T04:51:54;97016.00;;;11.70
8227;BMP180;4154;48.810;9.012;2023-08-07T04:54:20;97018.00;;;11.80
8227;BMP180;4154;48.810;9.012;2023-08-07T04:56:46;97028.00;;;11.70
8227;BMP180;4154;48.810;9.012;2023-08-07T04:59:12;97029.00;;;11.70
8227;BMP180;4154;48.810;9.012;2023-08-07T05:01:38;97029.00;;;11.70
8227;BMP180;4154;48.810;9.012;2023-08-07T05:04:05;97026.00;;;11.70
8227;BMP180;4154;48.810;9.012;2023-08-07T05:06:31;97022.00;;;11.70
8227;BMP180;4154;48.810;9.012;2023-08-07T05:08:57;97032.00;;;11.80
8227;BMP180;4154;48.810;9.012;2023-08-07T05:11:24;97027.00;;;11.70
8227;BMP180;4154;48.810;9.012;2023-08-07T05:13:50;97029.00;;;11.80
8227;BMP180;4154;48.810;9.012;2023-08-07T05:16:16;97030.00;;;11.80
8227;BMP180;4154;48.810;9.012;2023-08-07T05:18:44;97031.00;;;11.80
8227;BMP180;4154;48.810;9.012;2023-08-07T05:21:10;97029.00;;;11.80
8227;BMP180;4154;48.810;9.012;2023-08-07T05:23:36;97035.00;;;12.00
8227;BMP180;4154;48.810;9.012;2023-08-07T05:26:03;97048.00;;;11.90
8227;BMP180;4154;48.810;9.012;2023-08-07T05:28:29;97044.00;;;11.90
8227;BMP180;4154;48.810;9.012;2023-08-07T05:30:55;97044.00;;;12.10
8227;BMP180;4154;48.810;9.012;2023-08-07T05:33:21;97048.00;;;12.10
8227;BMP180;4154;48.810;9.012;2023-08-07T05:35:47;97048.00;;;12.10
8227;BMP180;4154;48.810;9.012;2023-08-07T05:38:13;97058.00;;;12.00
8227;BMP180;4154;48.810;9.012;2023-08-07T05:40:39;97052.00;;;12.10
8227;BMP180;4154;48.810;9.012;2023-08-07T05:43:06;97058.00;;;12.10
8227;BMP180;4154;48.810;9.012;2023-08-07T05:45:32;97065.00;;;12.00
8227;BMP180;4154;48.810;9.012;2023-08-07T05:47:58;97060.00;;;12.10
8227;BMP180;4154;48.810;9.012;2023-08-07T05:50:24;97068.00;;;12.10
8227;BMP180;4154;48.810;9.012;2023-08-07T05:52:50;97067.00;;;12.10
8227;BMP180;4154;48.810;9.012;2023-08-07T05:55:16;97083.00;;;12.10
8227;BMP180;4154;48.810;9.012;2023-08-07T05:57:42;97073.00;;;12.20
8227;BMP180;4154;48.810;9.012;2023-08-07T06:00:08;97074.00;;;12.20
8227;BMP180;4154;48.810;9.012;2023-08-07T06:02:39;97082.00;;;12.20
8227;BMP180;4154;48.810;9.012;2023-08-07T06:05:05;97084.00;;;12.30
8227;BMP180;4154;48.810;9.012;2023-08-07T06:07:31;97081.00;;;12.30
8227;BMP180;4154;48.810;9.012;2023-08-07T06:09:57;97082.00;;;12.30
8227;BMP180;4154;48.810;9.012;2023-08-07T06:12:24;97082.00;;;12.30
8227;BMP180;4154;48.810;9.012;2023-08-07T06:14:50;97087.00;;;12.40
8227;BMP180;4154;48.810;9.012;2023-08-07T06:17:16;97097.00;;;12.40
8227;BMP180;4154;48.810;9.012;2023-08-07T06:19:41;97083.00;;;12.40
8227;BMP180;4154;48.810;9.012;2023-08-07T06:22:07;97098.00;;;12.50
8227;BMP180;4154;48.810;9.012;2023-08-07T06:24:34;97096.00;;;12.50
8227;BMP180;4154;48.810;9.012;2023-08-07T06:26:59;97092.00;;;12.50
8227;BMP180;4154;48.810;9.012;2023-08-07T06:29:25;97108.00;;;12.50
8227;BMP180;4154;48.810;9.012;2023-08-07T06:31:51;97111.00;;;12.60
8227;BMP180;4154;48.810;9.012;2023-08-07T06:34:17;97117.00;;;12.60
8227;BMP180;4154;48.810;9.012;2023-08-07T06:36:43;97102.00;;;12.60
8227;BMP180;4154;48.810;9.012;2023-08-07T06:39:09;97110.00;;;12.60
8227;BMP180;4154;48.810;9.012;2023-08-07T06:41:37;97103.00;;;12.70
8227;BMP180;4154;48.810;9.012;2023-08-07T06:44:04;97099.00;;;12.80
8227;BMP180;4154;48.810;9.012;2023-08-07T06:46:30;97097.00;;;12.80
8227;BMP180;4154;48.810;9.012;2023-08-07T06:48:56;97092.00;;;12.80
8227;BMP180;4154;48.810;9.012;2023-08-07T06:51:22;97096.00;;;12.80
8227;BMP180;4154;48.810;9.012;2023-08-07T06:53:48;97099.00;;;12.80
8227;BMP180;4154;48.810;9.012;2023-08-07T06:56:15;97091.00;;;12.80
8227;BMP180;4154;48.810;9.012;2023-08-07T06:58:40;97100.00;;;12.80
8227;BMP180;4154;48.810;9.012;2023-08-07T07:01:06;97093.00;;;12.80
8227;BMP180;4154;48.810;9.012;2023-08-07T07:03:35;97090.00;;;12.90
8227;BMP180;4154;48.810;9.012;2023-08-07T07:06:01;97112.00;;;12.80
8227;BMP180;4154;48.810;9.012;2023-08-07T07:08:27;97107.00;;;12.80
8227;BMP180;4154;48.810;9.012;2023-08-07T07:10:54;97096.00;;;12.80
8227;BMP180;4154;48.810;9.012;2023-08-07T07:13:30;97092.00;;;12.80
8227;BMP180;4154;48.810;9.012;2023-08-07T07:15:59;97099.00;;;12.90
8227;BMP180;4154;48.810;9.012;2023-08-07T07:18:25;97111.00;;;12.90
8227;BMP180;4154;48.810;9.012;2023-08-07T07:20:58;97113.00;;;12.80
8227;BMP180;4154;48.810;9.012;2023-08-07T07:23:24;97108.00;;;12.80
8227;BMP180;4154;48.810;9.012;2023-08-07T07:25:50;97127.00;;;12.80
8227;BMP180;4154;48.810;9.012;2023-08-07T07:28:16;97123.00;;;12.90
8227;BMP180;4154;48.810;9.012;2023-08-07T07:30:42;97118.00;;;12.90
8227;BMP180;4154;48.810;9.012;2023-08-07T07:33:08;97117.00;;;12.90
8227;BMP180;4154;48.810;9.012;2023-08-07T07:35:38;97110.00;;;13.10
8227;BMP180;4154;48.810;9.012;2023-08-07T07:38:05;97128.00;;;13.20
8227;BMP180;4154;48.810;9.012;2023-08-07T07:40:31;97125.00;;;13.20
8227;BMP180;4154;48.810;9.012;2023-08-07T07:42:57;97131.00;;;13.30
8227;BMP180;4154;48.810;9.012;2023-08-07T07:45:23;97136.00;;;13.40
8227;BMP180;4154;48.810;9.012;2023-08-07T07:47:49;97129.00;;;13.40
8227;BMP180;4154;48.810;9.012;2023-08-07T07:50:14;97140.00;;;13.50
8227;BMP180;4154;48.810;9.012;2023-08-07T07:52:40;97143.00;;;13.50
8227;BMP180;4154;48.810;9.012;2023-08-07T07:55:06;97138.00;;;13.40
8227;BMP180;4154;48.810;9.012;2023-08-07T07:57:37;97139.00;;;13.40
8227;BMP180;4154;48.810;9.012;2023-08-07T08:00:03;97142.00;;;13.50
8227;BMP180;4154;48.810;9.012;2023-08-07T08:02:33;97150.00;;;13.40
8227;BMP180;4154;48.810;9.012;2023-08-07T08:04:59;97147.00;;;13.40
8227;BMP180;4154;48.810;9.012;2023-08-07T08:07:25;97147.00;;;13.40
8227;BMP180;4154;48.810;9.012;2023-08-07T08:09:51;97152.00;;;13.40
8227;BMP180;4154;48.810;9.012;2023-08-07T08:12:17;97150.00;;;13.40
8227;BMP180;4154;48.810;9.012;2023-08-07T08:14:43;97156.00;;;13.40
8227;BMP180;4154;48.810;9.012;2023-08-07T08:17:11;97161.00;;;13.40
8227;BMP180;4154;48.810;9.012;2023-08-07T08:19:37;97161.00;;;13.40
8227;BMP180;4154;48.810;9.012;2023-08-07T08:22:03;97163.00;;;13.50
8227;BMP180;4154;48.810;9.012;2023-08-07T08:24:29;97174.00;;;13.60
8227;BMP180;4154;48.810;9.012;2023-08-07T08:26:57;97168.00;;;13.60
8227;BMP180;4154;48.810;9.012;2023-08-07T08:29:23;97160.00;;;13.70
8227;BMP180;4154;48.810;9.012;2023-08-07T08:31:48;97149.00;;;13.70
8227;BMP180;4154;48.810;9.012;2023-08-07T08:34:14;97161.00;;;13.80
8227;BMP180;4154;48.810;9.012;2023-08-07T08:36:40;97158.00;;;13.90
8227;BMP180;4154;48.810;9.012;2023-08-07T08:39:06;97164.00;;;13.90
8227;BMP180;4154;48.810;9.012;2023-08-07T08:41:32;97171.00;;;13.90
8227;BMP180;4154;48.810;9.012;2023-08-07T08:44:01;97164.00;;;14.00
8227;BMP180;4154;48.810;9.012;2023-08-07T08:46:29;97159.00;;;14.00
8227;BMP180;4154;48.810;9.012;2023-08-07T08:48:57;97169.00;;;14.00
8227;BMP180;4154;48.810;9.012;2023-08-07T08:51:25;97164.00;;;14.10
8227;BMP180;4154;48.810;9.012;2023-08-07T08:53:54;97170.00;;;14.10
8227;BMP180;4154;48.810;9.012;2023-08-07T08:56:23;97172.00;;;14.10
8227;BMP180;4154;48.810;9.012;2023-08-07T08:58:52;97171.00;;;14.10
8227;BMP180;4154;48.810;9.012;2023-08-07T09:01:18;97173.00;;;14.10
8227;BMP180;4154;48.810;9.012;2023-08-07T09:03:45;97181.00;;;14.20
8227;BMP180;4154;48.810;9.012;2023-08-07T09:06:13;97176.00;;;14.30
8227;BMP180;4154;48.810;9.012;2023-08-07T09:08:43;97168.00;;;14.30
8227;BMP180;4154;48.810;9.012;2023-08-07T09:11:12;97174.00;;;14.40
8227;BMP180;4154;48.810;9.012;2023-08-07T09:13:39;97168.00;;;14.40
8227;BMP180;4154;48.810;9.012;2023-08-07T09:16:08;97174.00;;;14.50
8227;BMP180;4154;48.810;9.012;2023-08-07T09:18:34;97183.00;;;14.60
8227;BMP180;4154;48.810;9.012;2023-08-07T09:21:01;97181.00;;;14.70
8227;BMP180;4154;48.810;9.012;2023-08-07T09:23:27;97195.00;;;14.60
8227;BMP180;4154;48.810;9.012;2023-08-07T09:26:04;97192.00;;;14.60
8227;BMP180;4154;48.810;9.012;2023-08-07T09:28:32;97200.00;;;14.70
8227;BMP180;4154;48.810;9.012;2023-08-07T09:30:59;97200.00;;;14.80
8227;BMP180;4154;48.810;9.012;2023-08-07T09:33:29;97208.00;;;14.70
8227;BMP180;4154;48.810;9.012;2023-08-07T09:36:00;97200.00;;;14.70
8227;BMP180;4154;48.810;9.012;2023-08-07T09:38:32;97199.00;;;14.70
8227;BMP180;4154;48.810;9.012;2023-08-07T09:41:00;97197.00;;;14.70
8227;BMP180;4154;48.810;9.012;2023-08-07T09:43:25;97208.00;;;14.80
8227;BMP180;4154;48.810;9.012;2023-08-07T09:45:52;97221.00;;;14.80
8227;BMP180;4154;48.810;9.012;2023-08-07T09:48:24;97226.00;;;14.90
8227;BMP180;4154;48.810;9.012;2023-08-07T09:50:51;97222.00;;;15.00
8227;BMP180;4154;48.810;9.012;2023-08-07T09:53:17;97235.00;;;15.10
8227;BMP180;4154;48.810;9.012;2023-08-07T09:55:43;97221.00;;;15.10
8227;BMP180;4154;48.810;9.012;2023-08-07T09:58:12;97212.00;;;15.20
8227;BMP180;4154;48.810;9.012;2023-08-07T10:00:41;97211.00;;;15.30
8227;BMP180;4154;48.810;9.012;2023-08-07T10:03:08;97204.00;;;15.50
8227;BMP180;4154;48.810;9.012;2023-08-07T10:05:34;97207.00;;;15.60
8227;BMP180;4154;48.810;9.012;2023-08-07T10:08:00;97219.00;;;15.70
8227;BMP180;4154;48.810;9.012;2023-08-07T10:10:27;97213.00;;;15.80
8227;BMP180;4154;48.810;9.012;2023-08-07T10:12:53;97236.00;;;15.80
8227;BMP180;4154;48.810;9.012;2023-08-07T10:15:20;97205.00;;;15.90
8227;BMP180;4154;48.810;9.012;2023-08-07T10:17:46;97211.00;;;16.00
8227;BMP180;4154;48.810;9.012;2023-08-07T10:20:13;97235.00;;;16.00
8227;BMP180;4154;48.810;9.012;2023-08-07T10:22:39;97218.00;;;16.10
8227;BMP180;4154;48.810;9.012;2023-08-07T10:25:07;97226.00;;;16.20
8227;BMP180;4154;48.810;9.012;2023-08-07T10:27:37;97235.00;;;16.10
8227;BMP180;4154;48.810;9.012;2023-08-07T10:30:07;97227.00;;;16.10
8227;BMP180;4154;48.810;9.012;2023-08-07T10:32:34;97228.00;;;15.90
8227;BMP180;4154;48.810;9.012;2023-08-07T10:35:06;97237.00;;;15.90
8227;BMP180;4154;48.810;9.012;2023-08-07T10:37:43;97232.00;;;15.80
8227;BMP180;4154;48.810;9.012;2023-08-07T10:40:12;97229.00;;;15.70
8227;BMP180;4154;48.810;9.012;2023-08-07T10:45:21;97227.00;;;15.60
8227;BMP180;4154;48.810;9.012;2023-08-07T10:48:18;97240.00;;;15.80
8227;BMP180;4154;48.810;9.012;2023-08-07T10:51:03;97222.00;;;15.80
8227;BMP180;4154;48.810;9.012;2023-08-07T10:53:40;97233.00;;;15.80
8227;BMP180;4154;48.810;9.012;2023-08-07T10:56:10;97240.00;;;15.80
8227;BMP180;4154;48.810;9.012;2023-08-07T10:58:39;97235.00;;;15.70
8227;BMP180;4154;48.810;9.012;2023-08-07T11:03:57;97239.00;;;15.70
8227;BMP180;4154;48.810;9.012;2023-08-07T11:06:32;97243.00;;;15.60
8227;BMP180;4154;48.810;9.012;2023-08-07T11:08:59;97245.00;;;15.60
8227;BMP180;4154;48.810;9.012;2023-08-07T11:11:26;97254.00;;;15.50
8227;BMP180;4154;48.810;9.012;2023-08-07T11:13:53;97237.00;;;15.50
8227;BMP180;4154;48.810;9.012;2023-08-07T11:16:19;97246.00;;;15.50
8227;BMP180;4154;48.810;9.012;2023-08-07T11:18:47;97254.00;;;15.50
8227;BMP180;4154;48.810;9.012;2023-08-07T11:21:14;97253.00;;;15.50
8227;BMP180;4154;48.810;9.012;2023-08-07T11:23:40;97255.00;;;15.40
8227;BMP180;4154;48.810;9.012;2023-08-07T11:26:07;97263.00;;;15.30
8227;BMP180;4154;48.810;9.012;2023-08-07T11:28:33;97247.00;;;15.30
8227;BMP180;4154;48.810;9.012;2023-08-07T11:31:00;97258.00;;;15.20
8227;BMP180;4154;48.810;9.012;2023-08-07T11:33:28;97255.00;;;15.20
8227;BMP180;4154;48.810;9.012;2023-08-07T11:35:54;97267.00;;;15.30
8227;BMP180;4154;48.810;9.012;2023-08-07T11:38:39;97259.00;;;15.20
8227;BMP180;4154;48.810;9.012;2023-08-07T11:41:07;97266.00;;;15.20
8227;BMP180;4154;48.810;9.012;2023-08-07T11:43:34;97264.00;;;15.10
8227;BMP180;4154;48.810;9.012;2023-08-07T11:46:06;97263.00;;;15.10
8227;BMP180;4154;48.810;9.012;2023-08-07T11:48:35;97257.00;;;15.20
8227;BMP180;4154;48.810;9.012;2023-08-07T11:51:02;97260.00;;;15.10
8227;BMP180;4154;48.810;9.012;2023-08-07T11:53:34;97263.00;;;15.20
8227;BMP180;4154;48.810;9.012;2023-08-07T11:56:05;97263.00;;;15.30
8227;BMP180;4154;48.810;9.012;2023-08-07T11:58:37;97265.00;;;15.30
8227;BMP180;4154;48.810;9.012;2023-08-07T12:01:10;97267.00;;;15.40
8227;BMP180;4154;48.810;9.012;2023-08-07T12:03:40;97268.00;;;15.50
8227;BMP180;4154;48.810;9.012;2023-08-07T12:06:08;97271.00;;;15.50
8227;BMP180;4154;48.810;9.012;2023-08-07T12:08:40;97275.00;;;15.50
8227;BMP180;4154;48.810;9.012;2023-08-07T12:11:12;97287.00;;;15.70
8227;BMP180;4154;48.810;9.012;2023-08-07T12:13:44;97288.00;;;15.70
8227;BMP180;4154;48.810;9.012;2023-08-07T12:16:12;97286.00;;;15.70
8227;BMP180;4154;48.810;9.012;2023-08-07T12:18:52;97285.00;;;15.70
8227;BMP180;4154;48.810;9.012;2023-08-07T12:21:23;97289.00;;;15.80
8227;BMP180;4154;48.810;9.012;2023-08-07T12:23:54;97279.00;;;15.80
8227;BMP180;4154;48.810;9.012;2023-08-07T12:26:21;97282.00;;;15.90
8227;BMP180;4154;48.810;9.012;2023-08-07T12:28:47;97288.00;;;15.90
8227;BMP180;4154;48.810;9.012;2023-08-07T12:31:13;97265.00;;;16.00
8227;BMP180;4154;48.810;9.012;2023-08-07T12:33:39;97275.00;;;16.00
8227;BMP180;4154;48.810;9.012;2023-08-07T12:36:05;97279.00;;;16.10
8227;BMP180;4154;48.810;9.012;2023-08-07T12:38:31;97266.00;;;16.10
8227;BMP180;4154;48.810;9.012;2023-08-07T12:40:58;97266.00;;;16.20
8227;BMP180;4154;48.810;9.012;2023-08-07T12:43:24;97279.00;;;16.20
8227;BMP180;4154;48.810;9.012;2023-08-07T12:45:51;97264.00;;;16.30
8227;BMP180;4154;48.810;9.012;2023-08-07T12:48:18;97259.00;;;16.30
8227;BMP180;4154;48.810;9.012;2023-08-07T12:50:45;97279.00;;;16.30
8227;BMP180;4154;48.810;9.012;2023-08-07T12:53:11;97266.00;;;16.30
8227;BMP180;4154;48.810;9.012;2023-08-07T12:55:37;97282.00;;;16.30
8227;BMP180;4154;48.810;9.012;2023-08-07T12:58:03;97276.00;;;16.30
8227;BMP180;4154;48.810;9.012;2023-08-07T13:00:29;97268.00;;;16.30
8227;BMP180;4154;48.810;9.012;2023-08-07T13:02:55;97276.00;;;16.30
8227;BMP180;4154;48.810;9.012;2023-08-07T13:05:22;97278.00;;;16.30
8227;BMP180;4154;48.810;9.012;2023-08-07T13:07:49;97280.00;;;16.20
8227;BMP180;4154;48.810;9.012;2023-08-07T13:10:17;97276.00;;;16.10
8227;BMP180;4154;48.810;9.012;2023-08-07T13:12:47;97285.00;;;16.20
8227;BMP180;4154;48.810;9.012;2023-08-07T13:15:16;97280.00;;;16.20
8227;BMP180;4154;48.810;9.012;2023-08-07T13:17:43;97274.00;;;16.10
8227;BMP180;4154;48.810;9.012;2023-08-07T13:20:12;97269.00;;;16.20
8227;BMP180;4154;48.810;9.012;2023-08-07T13:22:43;97262.00;;;16.10
8227;BMP180;4154;48.810;9.012;2023-08-07T13:25:11;97269.00;;;16.20
8227;BMP180;4154;48.810;9.012;2023-08-07T13:27:37;97274.00;;;16.30
8227;BMP180;4154;48.810;9.012;2023-08-07T13:30:04;97271.00;;;16.40
8227;BMP180;4154;48.810;9.012;2023-08-07T13:32:31;97275.00;;;16.60
8227;BMP180;4154;48.810;9.012;2023-08-07T13:35:00;97269.00;;;16.60
8227;BMP180;4154;48.810;9.012;2023-08-07T13:37:26;97276.00;;;16.70
8227;BMP180;4154;48.810;9.012;2023-08-07T13:39:51;97266.00;;;16.80
8227;BMP180;4154;48.810;9.012;2023-08-07T13:42:19;97267.00;;;16.80
8227;BMP180;4154;48.810;9.012;2023-08-07T13:44:45;97272.00;;;16.90
8227;BMP180;4154;48.810;9.012;2023-08-07T13:47:11;97268.00;;;16.90
8227;BMP180;4154;48.810;9.012;2023-08-07T13:49:38;97275.00;;;16.90
8227;BMP180;4154;48.810;9.012;2023-08-07T13:52:05;97272.00;;;16.90
8227;BMP180;4154;48.810;9.012;2023-08-07T13:54:31;97280.00;;;16.80
8227;BMP180;4154;48.810;9.012;2023-08-07T13:56:57;97273.00;;;16.80
8227;BMP180;4154;48.810;9.012;2023-08-07T13:59:23;97278.00;;;16.80
8227;BMP180;4154;48.810;9.012;2023-08-07T14:01:49;97265.00;;;16.90
8227;BMP180;4154;48.810;9.012;2023-08-07T14:04:15;97276.00;;;17.00
8227;BMP180;4154;48.810;9.012;2023-08-07T14:06:42;97275.00;;;17.20
8227;BMP180;4154;48.810;9.012;2023-08-07T14:09:09;97279.00;;;17.20
8227;BMP180;4154;48.810;9.012;2023-08-07T14:11:35;97283.00;;;17.20
8227;BMP180;4154;48.810;9.012;2023-08-07T14:14:02;97294.00;;;17.10
8227;BMP180;4154;48.810;9.012;2023-08-07T14:16:28;97291.00;;;17.00
8227;BMP180;4154;48.810;9.012;2023-08-07T14:18:54;97290.00;;;17.00
8227;BMP180;4154;48.810;9.012;2023-08-07T14:21:20;97292.00;;;16.90
8227;BMP180;4154;48.810;9.012;2023-08-07T14:23:46;97300.00;;;17.00
8227;BMP180;4154;48.810;9.012;2023-08-07T14:26:13;97293.00;;;17.00
8227;BMP180;4154;48.810;9.012;2023-08-07T14:28:39;97296.00;;;17.00
8227;BMP180;4154;48.810;9.012;2023-08-07T14:31:09;97304.00;;;17.10
8227;BMP180;4154;48.810;9.012;2023-08-07T14:33:36;97299.00;;;17.00
8227;BMP180;4154;48.810;9.012;2023-08-07T14:36:02;97308.00;;;17.10
8227;BMP180;4154;48.810;9.012;2023-08-07T14:38:29;97302.00;;;17.20
8227;BMP180;4154;48.810;9.012;2023-08-07T14:40:55;97295.00;;;17.30
8227;BMP180;4154;48.810;9.012;2023-08-07T14:43:22;97302.00;;;17.50